หน้าหลัก
METAR-TAF:

METAR-TAF

ท่าอากาศยาน :

Yeovilton, อังกฤษ

ละติจูด: 51-00N, ลองจิจูด: 002-38W, ความสูง: 23 ม.

การสังเกตสภาพอากาศปัจจุบัน

รายงานได้ทำขึ้นเมื่อ 31 นาทีที่แล้ว ณ เวลา 01:20 UTC
ลม 2 นอตจากตะวันตก
อุณหภูมิ 10°C
ความชื้น 87%
ความกดอากาศ 1018 hPa
ทัศนวิสัย 10 กม. หรือมากกว่า

METAR: EGDY 190120Z AUTO 28002KT 9999 FEW030/// 10/08 Q1018

เวลา: 02:51 (01:51 UTC)

การพยากรณ์

รายงานได้ทำขึ้นเมื่อ 9 ชั่วโมงและ 23 นาทีที่แล้ว ณ เวลา 16:28 UTC
การพยากรณ์มีผลตั้งแต่วันที่ 18 ณ เวลา 18 UTC จนถึงวันที่ 19 ณ เวลา 03 UTC
ลม 8 นอตจากเหนือ/ตะวันตกเฉียงเหนือ
ทัศนวิสัย 10 กม. หรือมากกว่า
มีเมฆน้อยที่ความสูง 4000 ฟุต

TAF: EGDY 181628Z 1818/1903 33008KT 9999 FEW040

สังเกตการณ์สภาพอากาศและพยากรณ์อากาศของสนามบินมากกว่า 4000 แห่ง (รายงาน METAR และ TAF).

สถานีที่ดูได้จะแสดงไว้ด้วยจุดสีเหลืองและสีแดงบนแผนที่.

เลื่อนเมาส์ไปเหนือจุดเพื่อดูชื่อสถานี.

แล้วคลิกเพื่อดูสังเกตการณ์และการพยากรณ์สภาพอากาศ.

ในการเปลี่ยนแผนที่: คลิกที่ปุ่มสีเขียวที่มีกากบาทสีดำเพื่อซูมเข้า; ที่ปุ่มสีเขียวที่มีขีดเพื่อซูมออก; หรือที่ลูกศรสีเขียวเพื่อไปยังแผนที่ที่อยู่ติดกัน.


METAR-TAF: